Flight Track Log - Related Links

Times and Time Zones

All times are in EDT time to prevent confusion due to time zone crossing. See the DAL268 flight status page for this flight to view local times or setup timezone preferences in your user account.

Time Position Orientation Groundspeed Altitude Reporting Facility
EDT Latitude Longitude Course Direction KTS MPH feet Rate Location/Type
Thu 11:58:49 PM 40.6370 -73.7790 208° Southwest 2 2  Level FlightAware
Fri 12:02:00 AM 40.9913 -73.4475 30° Northeast  Level FlightAware
Fri 12:03:00 AM 41.1112 -73.3542 30° Northeast  Level FlightAware
Fri 12:03:07 AM 40.6360 -73.7790 30° Northeast 2 2  Level FlightAware
Fri 12:05:00 AM 40.8240 -73.6000 North  Level FlightAware
Fri 12:06:00 AM 40.9376 -73.5000 North  Level FlightAware
Fri 12:07:00 AM 41.0498 -73.4021 30° Northeast  Level FlightAware
Fri 12:08:00 AM 41.1707 -73.3127 37° Northeast  Level FlightAware
Fri 12:09:00 AM 41.2866 -73.2118 48° Northeast  Level FlightAware
Fri 12:10:00 AM 41.3885 -73.0960 72° East  Level FlightAware
Fri 12:11:00 AM 41.4500 -72.9333 56° Northeast  Level FlightAware
Fri 12:12:00 AM 41.5327 -72.7847 56° Northeast  Level FlightAware
Fri 12:13:00 AM 41.5993 -72.6219 63° Northeast  Level FlightAware
Fri 12:14:00 AM 41.6680 -72.4550 62° Northeast  Level FlightAware
Fri 12:15:01 AM 40.6330 -73.7800 229° Southwest 28 32  Level FlightAware
Fri 12:15:52 AM 40.6340 -73.7820 303° West 31 36 54 Level FlightAware
Fri 12:16:34 AM 40.6360 -73.7870 298° West 17 20 59 Level FlightAware
Fri 12:17:15 AM 40.6380 -73.7900 311° West 17 20 64 Level FlightAware
Fri 12:17:36 AM 40.6390 -73.7920 303° West 18 21 71 Level FlightAware
Fri 12:18:17 AM 40.6400 -73.7960 288° West 15 17 74 Level FlightAware
Fri 12:18:57 AM 40.6420 -73.7990 311° West 17 20 83 Level FlightAware
Fri 12:19:38 AM 40.6440 -73.8030 303° West 15 17 93 Level FlightAware
Fri 12:20:01 AM 40.6450 -73.8040 323° Northwest 17 20 106 Level FlightAware
Fri 12:20:44 AM 40.6470 -73.8090 298° West 19 22 116 Level FlightAware
Fri 12:21:25 AM 40.6480 -73.8130 288° West 16 18 139 Level FlightAware
Fri 12:22:41 AM 40.6490 -73.8160 294° West 22 25 171 Level FlightAware
Fri 12:23:33 AM 40.6420 -73.8030 125° Southeast 125 144 303 Level FlightAware
Fri 12:24:20 AM 40.6250 -73.7570 116° Southeast 193 222 500 712 Climbing FlightAware
Fri 12:24:32 AM 40.6240 -73.7430 95° East 203 234 700 1,167 Climbing FlightAware
Fri 12:24:56 AM 40.6220 -73.7120 95° East 214 246 1,200 1,059 Climbing FlightAware
Fri 12:25:23 AM 40.6220 -73.6770 90° East 237 273 1,600 873 Climbing FlightAware
Fri 12:25:51 AM 40.6310 -73.6360 74° East 271 312 2,000 857 Climbing FlightAware
Fri 12:26:05 AM 40.6430 -73.6170 50° Northeast 284 327 2,200 1,667 Climbing FlightAware
Fri 12:26:27 AM 40.6660 -73.5920 40° Northeast 299 344 3,000 2,429 Climbing FlightAware
Fri 12:26:47 AM 40.6870 -73.5690 40° Northeast 300 345 3,900 2,618 Climbing FlightAware
Fri 12:27:22 AM 40.7250 -73.5310 37° Northeast 312 359 5,400 2,903 Climbing FlightAware
Fri 12:27:49 AM 40.7570 -73.4960 40° Northeast 310 357 6,900 2,930 Climbing FlightAware
Fri 12:28:05 AM 40.7759 -73.4774 37° Northeast 317 365 7,500 2,368 Climbing FlightAware
Fri 12:28:27 AM 40.8044 -73.4564 29° Northeast 322 371 8,400 2,385 Climbing FlightAware
Fri 12:29:23 AM 40.8830 -73.4140 22° Northeast 339 390 10,600 1,891 Climbing FlightAware
Fri 12:29:59 AM 40.9380 -73.3840 22° Northeast 374 430 11,300 1,229 Climbing FlightAware
Fri 12:30:46 AM 41.0180 -73.3390 23° Northeast 415 478 12,300 1,724 Climbing FlightAware
Fri 12:31:26 AM 41.0910 -73.2980 23° Northeast 429 494 13,800 2,237 Climbing FlightAware
Fri 12:31:45 AM 41.1257 -73.2800 21° North 436 502 14,500 2,167 Climbing FlightAware
Fri 12:32:02 AM 41.1562 -73.2568 30° Northeast 442 509 15,100 2,066 Climbing FlightAware
Fri 12:32:46 AM 41.2202 -73.1746 44° Northeast 454 522 16,600 2,108 Climbing FlightAware
Fri 12:33:16 AM 41.2543 -73.1002 59° Northeast 460 529 17,700 2,066 Climbing FlightAware
Fri 12:33:47 AM 41.2900 -73.0257 57° Northeast 466 536 18,700 1,826 Climbing FlightAware
Fri 12:34:48 AM 41.3690 -72.8850 53° Northeast 478 550 20,500 1,691 Climbing FlightAware
Fri 12:35:37 AM 41.4350 -72.7690 53° Northeast 491 565 21,800 1,034 Climbing FlightAware
Fri 12:36:15 AM 41.4810 -72.6900 52° Northeast 492 566 22,000 1,032 Climbing FlightAware
Fri 12:37:10 AM 41.5580 -72.5510 53° Northeast 502 578 23,400 816 Climbing FlightAware
Fri 12:37:58 AM 41.6150 -72.4500 53° Northeast 502 578 23,400  Level FlightAware
Fri 12:38:35 AM 41.6590 -72.3720 53° Northeast 502 578 23,400 2,143 Level FlightAware
Fri 12:39:50 AM 41.8310 -72.1730 41° Northeast 537 618 27,400 2,509 Climbing FlightAware
Fri 12:40:25 AM 41.8910 -72.0830 48° Northeast 545 627 28,000 1,250 Climbing FlightAware
Fri 12:41:02 AM 41.9500 -71.9980 47° Northeast 545 627 28,900 1,553 Climbing FlightAware
Fri 12:41:50 AM 42.0400 -71.8670 47° Northeast 540 621 30,200 1,432 Climbing FlightAware
Fri 12:42:30 AM 42.1060 -71.7710 47° Northeast 538 619 31,000 558 Climbing FlightAware
Fri 12:43:16 AM 42.1840 -71.6590 47° Northeast 537 618 31,000  Level FlightAware
Fri 12:43:56 AM 42.2530 -71.5590 47° Northeast 534 615 31,000  Level FlightAware
Fri 12:44:36 AM 42.3200 -71.4630 47° Northeast 535 616 31,000  Level FlightAware
Fri 12:45:20 AM 42.3950 -71.3520 48° Northeast 535 616 31,000  Level FlightAware
Fri 12:45:56 AM 42.4550 -71.2640 47° Northeast 537 618 31,000  Level FlightAware
Fri 12:46:36 AM 42.5200 -71.1670 48° Northeast 540 621 31,000  Level FlightAware
Fri 12:47:18 AM 42.5930 -71.0590 47° Northeast 539 620 31,000  Level FlightAware
Fri 12:47:54 AM 42.6540 -70.9690 47° Northeast 539 620 31,000  Level FlightAware
Fri 12:48:34 AM 42.7200 -70.8720 47° Northeast 538 619 31,000  Level FlightAware
Fri 12:49:16 AM 42.7910 -70.7670 47° Northeast 537 618 31,000  Level FlightAware
Fri 12:49:54 AM 42.8560 -70.6700 48° Northeast 536 617 31,000  Level FlightAware
Fri 12:50:36 AM 42.9220 -70.5690 48° Northeast 536 617 31,000  Level FlightAware
Fri 12:51:18 AM 42.9940 -70.4610 48° Northeast 539 620 31,000  Level FlightAware
Fri 12:51:58 AM 43.0620 -70.3590 48° Northeast 540 621 31,000  Level FlightAware
Fri 12:52:41 AM 43.1330 -70.2500 48° Northeast 540 621 31,000  Level FlightAware
Fri 12:53:22 AM 43.2020 -70.1460 48° Northeast 539 620 31,000  Level FlightAware
Fri 12:54:04 AM 43.2730 -70.0370 48° Northeast 538 619 31,000  Level FlightAware
Fri 12:54:38 AM 43.3290 -69.9500 48° Northeast 538 619 31,000  Level FlightAware
Fri 12:55:22 AM 43.4000 -69.8430 48° Northeast 538 619 31,000  Level FlightAware
Fri 12:56:02 AM 43.4680 -69.7380 48° Northeast 536 617 31,000  Level FlightAware
Fri 12:56:48 AM 43.5440 -69.6180 49° Northeast 534 615 31,000  Level FlightAware
Fri 12:57:28 AM 43.6080 -69.5180 49° Northeast 534 615 31,000  Level FlightAware
Fri 12:58:25 AM 43.6970 -69.3800 48° Northeast 534 615 31,000  Level FlightAware
Fri 12:59:04 AM 43.7650 -69.2730 49° Northeast 535 616 31,000  Level FlightAware
Fri 12:59:53 AM 43.8340 -69.1660 48° Northeast 535 616 31,000  Level FlightAware
Fri 01:00:24 AM 43.8780 -69.0980 48° Northeast 535 616 31,000  Level FlightAware
Fri 01:01:11 AM 43.9440 -68.9960 48° Northeast 535 616 31,000  Level FlightAware
Fri 01:01:54 AM 44.0420 -68.8340 50° Northeast 535 616 31,000  Level FlightAware
Fri 01:02:38 AM 44.1140 -68.7200 49° Northeast 533 613 31,000  Level FlightAware
Fri 01:03:20 AM 44.1830 -68.6080 49° Northeast 533 613 31,000  Level FlightAware
Fri 01:03:54 AM 44.2370 -68.5220 49° Northeast 534 615 31,000  Level FlightAware
Fri 01:04:36 AM 44.3050 -68.4100 50° Northeast 534 615 31,000  Level FlightAware
Fri 01:05:20 AM 44.3740 -68.2980 49° Northeast 533 613 31,000  Level FlightAware
Fri 01:05:54 AM 44.4300 -68.2090 49° Northeast 532 612 31,000  Level FlightAware
Fri 01:06:36 AM 44.4980 -68.0960 50° Northeast 532 612 31,000  Level FlightAware
Fri 01:07:19 AM 44.5650 -67.9860 49° Northeast 532 612 31,000  Level FlightAware
Fri 01:07:54 AM 44.6220 -67.8940 49° Northeast 531 611 31,000  Level FlightAware
Fri 01:08:34 AM 44.6850 -67.7890 50° Northeast 530 610 31,000  Level FlightAware
Fri 01:09:19 AM 44.7560 -67.6710 50° Northeast 529 609 31,000  Level FlightAware
Fri 01:09:54 AM 44.8110 -67.5790 50° Northeast 529 609 31,000  Level FlightAware
Fri 01:10:42 AM 44.8870 -67.4520 50° Northeast 529 609 31,000  Level FlightAware
Fri 01:11:18 AM 44.9310 -67.3780 50° Northeast 530 610 31,000  Level FlightAware
Fri 01:12:06 AM 45.0180 -67.2320 50° Northeast 529 609 31,000 63 Level FlightAware
Fri 01:12:54 AM 45.0930 -67.1040 50° Northeast 531 611 31,100 614 Climbing FlightAware
Fri 01:13:34 AM 45.1580 -66.9920 51° Northeast 531 611 31,900 1,275 Climbing FlightAware
Fri 01:14:14 AM 45.2180 -66.8910 50° Northeast 528 608 32,800 825 Climbing FlightAware
Fri 01:14:54 AM 45.2820 -66.7810 50° Northeast 527 606 33,000 130 Climbing FlightAware
Fri 01:15:46 AM 45.3620 -66.6430 50° Northeast 525 604 33,000  Level FlightAware
Fri 01:16:29 AM 45.4280 -66.5280 51° Northeast 524 603 33,000  Level FlightAware
Fri 01:17:09 AM 45.4900 -66.4220 50° Northeast 523 602 33,000  Level FlightAware
Fri 01:17:50 AM 45.5530 -66.3120 51° Northeast 524 603 33,000  Level FlightAware
Fri 01:18:30 AM 45.6140 -66.2040 51° Northeast 526 605 33,000  Level FlightAware
Fri 01:19:10 AM 45.6760 -66.0940 51° Northeast 528 608 33,000  Level FlightAware
Fri 01:19:49 AM 45.7370 -65.9880 50° Northeast 529 609 33,000  Level FlightAware
Fri 01:20:31 AM 45.8020 -65.8730 51° Northeast 533 613 33,000  Level FlightAware
Fri 01:21:12 AM 45.8630 -65.7650 51° Northeast 535 616 33,000  Level FlightAware
Fri 01:21:56 AM 45.9330 -65.6400 51° Northeast 537 618 33,000  Level FlightAware
Fri 01:22:35 AM 45.9940 -65.5290 52° Northeast 536 617 33,000  Level FlightAware
Fri 01:23:13 AM 46.0530 -65.4230 51° Northeast 536 617 33,000  Level FlightAware
Fri 01:24:03 AM 46.1190 -65.3050 51° Northeast 536 617 33,000  Level FlightAware
Fri 01:24:40 AM 46.1680 -65.2180 51° Northeast 536 617 33,000  Level FlightAware
Fri 01:25:29 AM 46.2330 -65.1020 51° Northeast 536 617 33,000  Level FlightAware
Fri 01:26:07 AM 46.2840 -65.0120 51° Northeast 536 617 33,000  Level FlightAware
Fri 01:26:43 AM 46.3320 -64.9260 51° Northeast 536 617 33,000  Level FlightAware
Fri 01:27:31 AM 46.3950 -64.8120 51° Northeast 536 617 33,000  Level FlightAware
Fri 01:28:07 AM 46.4430 -64.7270 51° Northeast 536 617 33,000  Level FlightAware
Fri 01:28:54 AM 46.5050 -64.6150 51° Northeast 536 617 33,000  Level FlightAware
Fri 01:29:40 AM 46.5660 -64.5050 51° Northeast 536 617 33,000  Level FlightAware
Fri 01:30:13 AM 46.6100 -64.4270 51° Northeast 536 617 33,000  Level FlightAware
Fri 01:30:49 AM 46.6580 -64.3410 51° Northeast 536 617 33,000  Level FlightAware
Fri 01:31:38 AM 46.7230 -64.2240 51° Northeast 536 617 33,000  Level FlightAware
Fri 01:32:14 AM 46.7710 -64.1380 51° Northeast 536 617 33,000  Level FlightAware
Fri 01:32:50 AM 46.8180 -64.0510 52° Northeast 536 617 33,000  Level FlightAware
Fri 01:33:27 AM 46.9833 -63.6833 52° Northeast 540 621 33,000  Level Moncton Center
Fri 01:34:27 AM 47.0667 -63.4833 58° Northeast 540 621 33,000  Level Moncton Center
Fri 01:35:27 AM 47.1667 -63.3333 46° Northeast 540 621 33,000  Level Moncton Center
Fri 01:36:27 AM 47.2333 -63.1333 64° Northeast 540 621 33,000  Level Moncton Center
Fri 01:37:27 AM 47.3333 -62.9667 48° Northeast 530 610 33,000  Level Moncton Center
Fri 01:38:27 AM 47.4167 -62.7833 56° Northeast 530 610 33,000  Level Moncton Center
Fri 01:39:27 AM 47.5000 -62.6167 53° Northeast 530 610 33,000  Level Moncton Center
Fri 01:40:27 AM 47.6000 -62.4333 51° Northeast 530 610 33,000  Level Moncton Center
Fri 01:41:27 AM 47.6833 -62.2667 53° Northeast 530 610 33,000  Level Moncton Center
Fri 01:42:27 AM 47.7833 -62.0833 51° Northeast 530 610 33,000  Level Moncton Center
Fri 01:43:27 AM 47.8500 -61.9333 56° Northeast 530 610 33,000  Level Moncton Center
Fri 01:44:27 AM 47.9500 -61.7167 55° Northeast 530 610 33,000  Level Moncton Center
Fri 01:45:27 AM 48.0333 -61.5667 50° Northeast 530 610 33,000  Level Moncton Center
Fri 01:46:27 AM 48.1167 -61.3833 56° Northeast 530 610 33,000  Level Moncton Center
Fri 01:47:27 AM 48.2000 -61.1833 58° Northeast 530 610 33,000  Level Moncton Center
Fri 01:48:27 AM 48.2833 -61.0167 53° Northeast 530 610 33,000  Level Moncton Center
Fri 01:49:27 AM 48.3833 -60.8167 53° Northeast 530 610 33,000  Level Moncton Center
Fri 01:55:00 AM 48.8610 -59.8270 53° Northeast 536 617 33,000  Level FlightAware
Fri 01:55:39 AM 48.9140 -59.7100 55° Northeast 535 616 33,000  Level FlightAware
Fri 01:56:14 AM 48.9650 -59.5980 55° Northeast 534 615 33,000  Level FlightAware
Fri 01:57:04 AM 49.0340 -59.4430 56° Northeast 533 613 33,000  Level FlightAware
Fri 01:57:44 AM 49.0890 -59.3190 56° Northeast 532 612 33,000  Level FlightAware
Fri 01:58:39 AM 49.1660 -59.1470 56° Northeast 532 612 33,000  Level FlightAware
Fri 01:59:19 AM 49.2200 -59.0220 56° Northeast 533 613 33,000  Level FlightAware
Fri 02:00:04 AM 49.2820 -58.8810 56° Northeast 534 615 33,000  Level FlightAware
Fri 02:00:39 AM 49.3300 -58.7710 56° Northeast 535 616 33,000  Level FlightAware
Fri 02:01:19 AM 49.3790 -58.6570 57° Northeast 537 618 33,000  Level FlightAware
Fri 02:02:04 AM 49.4440 -58.5080 56° Northeast 537 618 33,000  Level FlightAware
Fri 02:02:39 AM 49.4930 -58.3890 58° Northeast 540 621 33,000  Level FlightAware
Fri 02:03:19 AM 49.5450 -58.2560 59° Northeast 543 625 33,000  Level FlightAware
Fri 02:04:04 AM 49.6000 -58.1040 61° Northeast 545 627 33,000  Level FlightAware
Fri 02:04:44 AM 49.6450 -57.9700 63° Northeast 547 629 33,000  Level FlightAware
Fri 02:05:24 AM 49.6940 -57.8290 62° Northeast 549 632 33,000  Level FlightAware
Fri 02:06:09 AM 49.7470 -57.6760 62° Northeast 549 632 33,000  Level FlightAware
Fri 02:06:49 AM 49.7950 -57.5340 62° Northeast 549 632 33,000  Level FlightAware
Fri 02:07:39 AM 49.8540 -57.3560 63° Northeast 548 631 33,000  Level FlightAware
Fri 02:08:24 AM 49.9050 -57.2030 63° Northeast 547 629 33,000  Level FlightAware
Fri 02:09:04 AM 49.9520 -57.0640 62° Northeast 547 629 33,000  Level FlightAware
Fri 02:09:39 AM 49.9920 -56.9450 62° Northeast 547 629 33,000  Level FlightAware
Fri 02:10:19 AM 50.0390 -56.8020 63° Northeast 548 631 33,000  Level FlightAware
Fri 02:10:59 AM 50.0850 -56.6620 63° Northeast 548 631 33,000  Level FlightAware
Fri 02:11:45 AM 50.1370 -56.5040 63° Northeast 547 629 33,000  Level FlightAware
Fri 02:12:29 AM 50.1890 -56.3450 63° Northeast 547 629 33,000  Level FlightAware
Fri 02:13:09 AM 50.2340 -56.2050 63° Northeast 546 628 33,000  Level FlightAware
Fri 02:13:49 AM 50.2800 -56.0600 64° Northeast 546 628 33,000  Level FlightAware
Fri 02:14:29 AM 50.3250 -55.9220 63° Northeast 547 629 33,000  Level FlightAware
Fri 02:15:21 AM 50.3810 -55.7420 64° Northeast 546 628 33,000  Level FlightAware
Fri 02:16:04 AM 50.4310 -55.5820 64° Northeast 547 629 33,000  Level FlightAware
Fri 02:16:39 AM 50.4700 -55.4610 63° Northeast 546 628 33,000  Level FlightAware
Fri 02:17:19 AM 50.5150 -55.3190 63° Northeast 547 629 33,000 424 Level FlightAware
Fri 02:18:04 AM 50.5640 -55.1580 64° Northeast 547 629 33,600 632 Climbing FlightAware
Fri 02:18:54 AM 50.6200 -54.9790 64° Northeast 547 629 34,000 267 Climbing FlightAware
Fri 02:19:34 AM 50.6630 -54.8360 65° Northeast 543 625 34,000  Level FlightAware
Fri 02:20:15 AM 50.7020 -54.7090 64° Northeast 539 620 34,000  Level FlightAware
Fri 02:20:59 AM 50.7540 -54.5360 65° Northeast 536 617 34,000  Level FlightAware
Fri 02:21:39 AM 50.7980 -54.3910 64° Northeast 533 613 34,000  Level FlightAware
Fri 02:22:19 AM 50.8390 -54.2540 65° Northeast 532 612 34,000  Level FlightAware
Fri 02:23:04 AM 50.8850 -54.1000 65° Northeast 528 608 34,000  Level FlightAware
Fri 02:23:54 AM 50.9380 -53.9230 65° Northeast 525 604 34,000  Level FlightAware
Fri 02:24:49 AM 50.9930 -53.7320 65° Northeast 519 597 34,000  Level FlightAware
Fri 02:25:31 AM 51.0300 -53.6040 65° Northeast 518 596 34,000  Level FlightAware
Fri 02:26:07 AM 51.0610 -53.4990 65° Northeast 518 596 34,000  Level FlightAware
Fri 02:26:59 AM 51.1160 -53.3090 65° Northeast 514 592 34,000  Level FlightAware
Fri 02:27:36 AM 51.1470 -53.2010 65° Northeast 514 592 34,000  Level FlightAware
Fri 02:28:12 AM 51.1780 -53.0960 65° Northeast 514 592 34,000  Level FlightAware
Fri 02:28:48 AM 51.2090 -52.9910 65° Northeast 514 592 34,000  Level FlightAware
Fri 02:29:36 AM 51.2500 -52.8500 65° Northeast 514 592 34,000  Level FlightAware
Fri 02:30:15 AM 51.2830 -52.7360 65° Northeast 514 592 34,000  Level FlightAware
Fri 02:30:51 AM 51.3140 -52.6310 65° Northeast 514 592 34,000  Level FlightAware
Fri 02:31:28 AM 51.3460 -52.5220 65° Northeast 514 592 34,000  Level FlightAware
Fri 02:32:17 AM 51.3870 -52.3780 65° Northeast 514 592 34,000  Level FlightAware
Fri 02:32:53 AM 51.4180 -52.2730 65° Northeast 514 592 34,000  Level FlightAware
Fri 02:33:41 AM 51.4590 -52.1320 65° Northeast 514 592 34,000  Level FlightAware
Fri 02:34:18 AM 51.4910 -52.0230 65° Northeast 514 592 34,000  Level FlightAware
Fri 02:35:06 AM 51.5320 -51.8810 65° Northeast 514 592 34,000  Level FlightAware
Fri 02:35:42 AM 51.5620 -51.7750 65° Northeast 514 592 34,000  Level FlightAware
Fri 02:36:13 AM 51.6167 -51.3000 65° Northeast 530 610 34,000  Level Gander Center
Fri 02:36:54 AM 51.6333 -51.1333 81° East 530 610 34,000 Level Gander Center
Fri 02:39:00 AM 51.7569 -50.7571 62° Northeast  Level FlightAware
Fri 02:46:00 AM 52.1910 -49.2317 68° East  Level FlightAware
Fri 02:47:00 AM 52.2456 -49.0071 68° East  Level FlightAware
Fri 02:48:00 AM 52.2998 -48.7820 68° East  Level FlightAware
Fri 02:49:00 AM 52.3535 -48.5564 69° East  Level FlightAware
Fri 02:50:00 AM 52.4068 -48.3302 69° East  Level FlightAware
Fri 02:51:00 AM 52.4597 -48.1034 69° East  Level FlightAware
Fri 02:52:00 AM 52.5121 -47.8761 69° East  Level FlightAware
Fri 02:53:00 AM 52.5641 -47.6483 69° East  Level FlightAware
Fri 02:54:00 AM 52.6156 -47.4200 70° East  Level FlightAware
Fri 02:55:00 AM 52.6667 -47.1911 70° East  Level FlightAware
Fri 02:56:00 AM 52.7174 -46.9616 70° East  Level FlightAware
Fri 02:57:00 AM 52.7676 -46.7317 70° East  Level FlightAware
Fri 02:58:00 AM 52.8174 -46.5012 70° East  Level FlightAware
Fri 02:59:00 AM 52.8667 -46.2702 70° East  Level FlightAware
Fri 03:00:00 AM 52.9156 -46.0386 71° East  Level FlightAware
Fri 03:01:00 AM 52.9641 -45.8066 71° East  Level FlightAware
Fri 03:02:00 AM 53.0121 -45.5740 71° East  Level FlightAware
Fri 03:03:00 AM 53.0596 -45.3409 71° East  Level FlightAware
Fri 03:04:00 AM 53.1067 -45.1073 71° East  Level FlightAware
Fri 03:05:00 AM 53.1533 -44.8732 72° East  Level FlightAware
Fri 03:06:00 AM 53.1994 -44.6385 72° East  Level FlightAware
Fri 03:07:00 AM 53.2451 -44.4034 72° East  Level FlightAware
Fri 03:08:00 AM 53.2903 -44.1678 72° East  Level FlightAware
Fri 03:09:00 AM 53.3351 -43.9317 72° East  Level FlightAware
Fri 03:10:00 AM 53.3794 -43.6950 72° East  Level FlightAware
Fri 03:11:00 AM 53.4232 -43.4579 73° East  Level FlightAware
Fri 03:12:00 AM 53.4665 -43.2203 73° East  Level FlightAware
Fri 03:13:00 AM 53.5094 -42.9823 73° East  Level FlightAware
Fri 03:14:00 AM 53.5518 -42.7437 73° East  Level FlightAware
Fri 03:15:00 AM 53.5938 -42.5047 73° East  Level FlightAware
Fri 03:16:00 AM 53.6352 -42.2652 74° East  Level FlightAware
Fri 03:17:00 AM 53.6762 -42.0252 74° East  Level FlightAware
Fri 03:18:00 AM 53.7167 -41.7848 74° East  Level FlightAware
Fri 03:19:00 AM 53.7567 -41.5439 74° East  Level FlightAware
Fri 03:20:00 AM 53.7962 -41.3025 74° East  Level FlightAware
Fri 03:21:00 AM 53.8353 -41.0607 75° East  Level FlightAware
Fri 03:22:00 AM 53.8739 -40.8184 75° East  Level FlightAware
Fri 03:23:00 AM 53.9119 -40.5757 75° East  Level FlightAware
Fri 03:24:00 AM 53.9495 -40.3326 75° East  Level FlightAware
Fri 03:25:00 AM 53.9866 -40.0890 75° East  Level FlightAware
Fri 03:26:00 AM 54.0221 -39.8446 76° East  Level FlightAware
Fri 03:27:00 AM 54.0566 -39.5995 76° East  Level FlightAware
Fri 03:28:00 AM 54.0905 -39.3539 77° East  Level FlightAware
Fri 03:29:00 AM 54.1240 -39.1080 77° East  Level FlightAware
Fri 03:30:00 AM 54.1569 -38.8617 77° East  Level FlightAware
Fri 03:31:00 AM 54.1893 -38.6150 77° East  Level FlightAware
Fri 03:32:00 AM 54.2212 -38.3679 77° East  Level FlightAware
Fri 03:33:00 AM 54.2527 -38.1204 78° East  Level FlightAware
Fri 03:34:00 AM 54.2836 -37.8726 78° East  Level FlightAware
Fri 03:35:00 AM 54.3140 -37.6244 78° East  Level FlightAware
Fri 03:36:00 AM 54.3439 -37.3758 78° East  Level FlightAware
Fri 03:37:00 AM 54.3730 -37.1268 79° East  Level FlightAware
Fri 03:38:00 AM 54.4006 -36.8771 79° East  Level FlightAware
Fri 03:39:00 AM 54.4277 -36.6270 79° East  Level FlightAware
Fri 03:40:00 AM 54.4542 -36.3767 80° East  Level FlightAware
Fri 03:41:00 AM 54.4803 -36.1260 80° East  Level FlightAware
Fri 03:42:00 AM 54.5058 -35.8750 80° East  Level FlightAware
Fri 03:43:00 AM 54.5321 -35.6241 79° East  Level FlightAware
Fri 03:44:00 AM 54.5588 -35.3731 80° East  Level FlightAware
Fri 03:45:00 AM 54.5850 -35.1218 80° East  Level FlightAware
Fri 03:46:00 AM 54.6106 -34.8702 80° East  Level FlightAware
Fri 03:47:00 AM 54.6358 -34.6183 80° East  Level FlightAware
Fri 03:48:00 AM 54.6604 -34.3661 80° East  Level FlightAware
Fri 03:49:00 AM 54.6845 -34.1135 81° East  Level FlightAware
Fri 03:50:00 AM 54.7080 -33.8607 81° East  Level FlightAware
Fri 03:51:00 AM 54.7311 -33.6076 81° East  Level FlightAware
Fri 03:52:00 AM 54.7536 -33.3542 81° East  Level FlightAware
Fri 03:53:00 AM 54.7756 -33.1005 81° East  Level FlightAware
Fri 03:54:00 AM 54.7970 -32.8465 82° East  Level FlightAware
Fri 03:55:00 AM 54.8180 -32.5923 82° East  Level FlightAware
Fri 03:56:00 AM 54.8383 -32.3378 82° East  Level FlightAware
Fri 03:57:00 AM 54.8582 -32.0831 82° East  Level FlightAware
Fri 03:58:00 AM 54.8775 -31.8281 82° East  Level FlightAware
Fri 03:59:00 AM 54.8963 -31.5729 83° East  Level FlightAware
Fri 04:00:00 AM 54.9146 -31.3174 83° East  Level FlightAware
Fri 04:01:00 AM 54.9323 -31.0617 83° East  Level FlightAware
Fri 04:02:00 AM 54.9491 -30.8119 83° East  Level FlightAware
Fri 04:03:00 AM 54.9654 -30.5618 83° East  Level FlightAware
Fri 04:04:00 AM 54.9811 -30.3124 84° East  Level FlightAware
Fri 04:05:00 AM 54.9963 -30.0628 84° East  Level FlightAware
Fri 04:06:00 AM 54.9892 -29.8130 96° East  Level FlightAware
Fri 04:07:00 AM 54.9743 -29.5634 96° East  Level FlightAware
Fri 04:08:00 AM 54.9590 -29.3140 96° East  Level FlightAware
Fri 04:09:00 AM 54.9431 -29.0648 96° East  Level FlightAware
Fri 04:10:00 AM 54.9267 -28.8157 96° East  Level FlightAware
Fri 04:11:00 AM 54.9098 -28.5669 97° East  Level FlightAware
Fri 04:12:00 AM 54.8923 -28.3183 97° East  Level FlightAware
Fri 04:13:00 AM 54.8744 -28.0699 97° East  Level FlightAware
Fri 04:14:00 AM 54.8560 -27.8218 97° East  Level FlightAware
Fri 04:15:00 AM 54.8370 -27.5738 97° East  Level FlightAware
Fri 04:16:00 AM 54.8176 -27.3261 98° East  Level FlightAware
Fri 04:17:00 AM 54.7976 -27.0786 98° East  Level FlightAware
Fri 04:18:00 AM 54.7772 -26.8314 98° East  Level FlightAware
Fri 04:19:00 AM 54.7562 -26.5845 98° East  Level FlightAware
Fri 04:20:00 AM 54.7348 -26.3378 98° East  Level FlightAware
Fri 04:21:00 AM 54.7128 -26.0913 99° East  Level FlightAware
Fri 04:22:00 AM 54.6904 -25.8452 99° East  Level FlightAware
Fri 04:23:00 AM 54.6674 -25.5993 99° East  Level FlightAware
Fri 04:24:00 AM 54.6440 -25.3537 99° East  Level FlightAware
Fri 04:25:00 AM 54.6200 -25.1083 99° East  Level FlightAware
Fri 04:26:00 AM 54.5956 -24.8633 100° East  Level FlightAware
Fri 04:27:00 AM 54.5707 -24.6186 100° East  Level FlightAware
Fri 04:28:00 AM 54.5452 -24.3741 100° East  Level FlightAware
Fri 04:29:00 AM 54.5193 -24.1300 100° East  Level FlightAware
Fri 04:30:00 AM 54.4929 -23.8862 100° East  Level FlightAware
Fri 04:31:00 AM 54.4660 -23.6427 101° East  Level FlightAware
Fri 04:32:00 AM 54.4386 -23.3995 101° East  Level FlightAware
Fri 04:33:00 AM 54.4108 -23.1567 101° East  Level FlightAware
Fri 04:34:00 AM 54.3824 -22.9141 101° East  Level FlightAware
Fri 04:35:00 AM 54.3535 -22.6720 101° East  Level FlightAware
Fri 04:36:00 AM 54.3242 -22.4301 102° East  Level FlightAware
Fri 04:37:00 AM 54.2944 -22.1886 102° East  Level FlightAware
Fri 04:38:00 AM 54.2641 -21.9475 102° East  Level FlightAware
Fri 04:39:00 AM 54.2333 -21.7067 102° East  Level FlightAware
Fri 04:40:00 AM 54.2021 -21.4663 102° East  Level FlightAware
Fri 04:41:00 AM 54.1703 -21.2258 103° East  Level FlightAware
Fri 04:42:00 AM 54.1380 -20.9858 103° East  Level FlightAware
Fri 04:43:00 AM 54.1053 -20.7460 103° East  Level FlightAware
Fri 04:44:00 AM 54.0721 -20.5067 103° East  Level FlightAware
Fri 04:45:00 AM 54.0384 -20.2678 103° East  Level FlightAware
Fri 04:46:00 AM 54.0042 -20.0292 104° East  Level FlightAware
Fri 04:47:00 AM 53.9852 -19.7862 97° East  Level FlightAware
Fri 04:48:00 AM 53.9678 -19.5427 97° East  Level FlightAware
Fri 04:49:00 AM 53.9500 -19.2994 97° East  Level FlightAware
Fri 04:50:00 AM 53.9317 -19.0563 97° East  Level FlightAware
Fri 04:51:00 AM 53.9128 -18.8134 97° East  Level FlightAware
Fri 04:52:00 AM 53.8935 -18.5708 98° East  Level FlightAware
Fri 04:53:00 AM 53.8737 -18.3284 98° East  Level FlightAware
Fri 04:54:00 AM 53.8534 -18.0862 98° East  Level FlightAware
Fri 04:55:00 AM 53.8327 -17.8442 98° East  Level FlightAware
Fri 04:56:00 AM 53.8114 -17.6025 98° East  Level FlightAware
Fri 04:57:00 AM 53.7896 -17.3611 99° East  Level FlightAware
Fri 04:58:00 AM 53.7674 -17.1199 99° East  Level FlightAware
Fri 04:59:00 AM 53.7447 -16.8789 99° East  Level FlightAware
Fri 05:00:00 AM 53.7215 -16.6382 99° East  Level FlightAware
Fri 05:01:00 AM 53.6978 -16.3978 99° East  Level FlightAware
Fri 05:02:00 AM 53.6737 -16.1577 100° East  Level FlightAware
Fri 05:03:00 AM 53.6490 -15.9178 100° East  Level FlightAware
Fri 05:04:00 AM 53.6239 -15.6787 100° East  Level FlightAware
Fri 05:05:00 AM 53.5984 -15.4398 100° East  Level FlightAware
Fri 05:06:00 AM 53.5723 -15.2012 100° East  Level FlightAware
Fri 05:07:00 AM 53.5458 -14.9629 101° East  Level FlightAware
Fri 05:08:00 AM 53.5187 -14.7250 101° East  Level FlightAware
Fri 05:09:00 AM 53.4910 -14.4873 101° East  Level FlightAware
Fri 05:10:00 AM 53.4629 -14.2500 101° East  Level FlightAware
Fri 05:10:33 AM 52.8610 -12.8980 101° East 537 618 35,000  Level FlightAware
Fri 05:11:00 AM 53.4343 -14.0130 101° East  Level FlightAware
Fri 05:11:22 AM 52.8480 -12.7270 97° East 537 618 35,000  Level FlightAware
Fri 05:12:00 AM 52.8340 -12.5480 97° East 537 618 35,000  Level FlightAware
Fri 05:12:45 AM 52.8190 -12.3570 97° East 538 619 35,000  Level FlightAware
Fri 05:13:25 AM 52.8060 -12.1940 97° East 538 619 35,000  Level FlightAware
Fri 05:14:05 AM 52.7920 -12.0310 98° East 539 620 35,000  Level FlightAware
Fri 05:14:50 AM 52.7770 -11.8470 98° East 542 624 35,000  Level FlightAware
Fri 05:15:24 AM 52.7650 -11.7070 98° East 542 624 35,000  Level FlightAware
Fri 05:16:03 AM 52.7510 -11.5470 98° East 543 625 35,000  Level FlightAware
Fri 05:16:53 AM 52.7330 -11.3380 98° East 544 626 35,000  Level FlightAware
Fri 05:17:28 AM 52.7200 -11.1980 99° East 544 626 35,000  Level FlightAware
Fri 05:18:03 AM 52.7070 -11.0550 98° East 545 627 35,000  Level FlightAware
Fri 05:18:48 AM 52.6900 -10.8710 99° East 546 628 35,000  Level FlightAware
Fri 05:19:28 AM 52.6750 -10.7020 98° East 545 627 35,000  Level FlightAware
Fri 05:20:14 AM 52.6570 -10.5220 99° East 545 627 35,000  Level FlightAware
Fri 05:20:58 AM 52.6400 -10.3380 99° East 545 627 35,000  Level FlightAware
Fri 05:21:34 AM 52.6250 -10.1900 99° East 544 626 35,000  Level FlightAware
Fri 05:22:18 AM 52.6070 -10.0110 99° East 545 627 35,000  Level FlightAware
Fri 05:22:49 AM 52.5950 -9.8920 99° East 545 627 35,000  Level FlightAware
Fri 05:23:31 AM 52.5760 -9.7080 100° East 546 628 35,000  Level FlightAware
Fri 05:24:18 AM 52.5580 -9.5320 99° East 545 627 35,000  Level FlightAware
Fri 05:24:48 AM 52.5440 -9.3970 100° East 544 626 35,000  Level FlightAware
Fri 05:25:33 AM 52.5240 -9.2140 100° East 546 628 35,000  Level FlightAware
Fri 05:26:18 AM 52.5040 -9.0310 100° East 546 628 35,000  Level FlightAware
Fri 05:26:48 AM 52.4910 -8.9090 100° East 545 627 35,000 176 Level FlightAware
Fri 05:27:26 AM 52.4726 -8.7452 100° East 500 575 35,200 533 Climbing FlightAware
Fri 05:27:33 AM 52.4710 -8.7300 100° East 547 629 35,400 1,404 Climbing FlightAware
Fri 05:28:13 AM 52.4520 -8.5680 101° East 543 625 36,300 1,157 Climbing FlightAware
Fri 05:28:56 AM 52.4312 -8.3802 101° East 496 571 37,000 933 Climbing FlightAware
Fri 05:28:58 AM 52.4310 -8.3820 101° East 542 624 37,000  Level FlightAware
Fri 05:29:38 AM 52.4120 -8.2220 101° East 540 621 37,000  Level FlightAware
Fri 05:30:19 AM 52.3990 -8.1090 101° East 539 620 37,000  Level FlightAware
Fri 05:30:47 AM 52.3840 -7.9770 100° East 538 619 37,000 -90 Level FlightAware
Fri 05:31:26 AM 52.3601 -7.7792 100° East 492 566 36,900  Descending FlightAware
Fri 05:31:28 AM 52.3600 -7.7780 100° East 538 619 37,000 143 Climbing FlightAware
Fri 05:32:08 AM 52.3410 -7.6230 101° East 537 618 37,000  Level FlightAware
Fri 05:32:50 AM 52.3210 -7.4590 101° East 538 619 37,000 -77 Level FlightAware
Fri 05:33:26 AM 52.3015 -7.3026 101° East 494 568 36,900  Descending FlightAware
Fri 05:33:30 AM 52.3010 -7.3010 101° East 537 618 37,000 143 Climbing FlightAware
Fri 05:34:08 AM 52.2820 -7.1500 102° East 536 617 37,000  Level FlightAware
Fri 05:34:50 AM 52.2600 -6.9760 102° East 536 617 37,000 -76 Level FlightAware
Fri 05:35:27 AM 52.2411 -6.8261 102° East 492 566 36,900  Descending FlightAware
Fri 05:35:32 AM 52.2390 -6.8100 102° East 535 616 37,000 128 Climbing FlightAware
Fri 05:36:14 AM 52.2170 -6.6410 102° East 535 616 37,000  Level FlightAware
Fri 05:36:55 AM 52.1960 -6.4870 102° East 537 618 37,000 -140 Level FlightAware
Fri 05:36:57 AM 52.1944 -6.4719 102° East 492 566 36,900  Descending FlightAware
Fri 05:37:35 AM 52.1760 -6.3330 102° East 538 619 37,000  Climbing FlightAware
Fri 05:38:21 AM 52.1500 -6.1402 102° East 492 566 36,900  Descending FlightAware
Fri 05:38:22 AM 52.1490 -6.1390 102° East 540 621 37,000 146 Climbing FlightAware
Fri 05:39:02 AM 52.1290 -5.9840 102° East 541 623 37,000  Level FlightAware
Fri 05:39:43 AM 52.1060 -5.8220 102° East 540 621 37,000 -140 Level FlightAware
Fri 05:39:45 AM 52.1045 -5.8061 102° East 494 568 36,900  Descending FlightAware
Fri 05:40:24 AM 52.0840 -5.6630 102° East 542 624 37,000  Climbing FlightAware
Fri 05:40:27 AM 52.0811 -5.6391 102° East 494 568 36,900 -182 Descending FlightAware
Fri 05:40:57 AM 52.0709 -5.5175 102° East 496 571 36,900 162 Level FlightAware
Fri 05:41:04 AM 52.0700 -5.5010 102° East 543 625 37,000 130 Climbing FlightAware
Fri 05:41:43 AM 52.0570 -5.3520 98° East 543 625 37,000  Level FlightAware
Fri 05:42:28 AM 52.0400 -5.1540 98° East 544 626 37,000 -70 Level FlightAware
Fri 05:43:09 AM 52.0241 -4.9834 98° East 494 568 36,900  Descending FlightAware
Fri 05:43:16 AM 52.0210 -4.9600 98° East 544 626 37,000 128 Climbing FlightAware
Fri 05:43:56 AM 52.0070 -4.7990 98° East 544 626 37,000  Level FlightAware
Fri 05:44:32 AM 51.9950 -4.6570 98° East 543 625 37,000  Level FlightAware
Fri 05:45:01 AM 51.9833 -4.5328 99° East 543 625 37,000  Level FlightAware
Fri 05:45:37 AM 51.9700 -4.3922 99° East 543 625 37,000  Level FlightAware
Fri 05:46:19 AM 51.9543 -4.2236 99° East 542 624 37,000  Level FlightAware
Fri 05:46:50 AM 51.9423 -4.0952 99° East 543 625 37,000  Level FlightAware
Fri 05:47:28 AM 51.9280 -3.9469 99° East 544 626 37,000 -82 Level FlightAware
Fri 05:48:03 AM 51.9141 -3.8007 99° East 496 571 36,900 -92 Descending FlightAware
Fri 05:48:33 AM 51.9023 -3.6804 99° East 494 568 36,900 194 Level FlightAware
Fri 05:48:34 AM 51.9020 -3.6820 99° East 543 625 37,000 162 Climbing FlightAware
Fri 05:49:10 AM 51.8877 -3.5381 99° East 543 625 37,000  Level FlightAware
Fri 05:49:40 AM 51.8756 -3.4139 99° East 543 625 37,000  Level FlightAware
Fri 05:50:23 AM 51.8580 -3.2422 99° East 543 625 37,000  Level FlightAware
Fri 05:50:54 AM 51.8456 -3.1222 99° East 543 625 37,000  Level FlightAware
Fri 05:51:29 AM 51.8307 -2.9786 99° East 544 626 37,000  Level FlightAware
Fri 05:52:00 AM 51.8177 -2.8547 100° East 544 626 37,000  Level FlightAware
Fri 05:52:32 AM 51.8043 -2.7311 100° East 544 626 37,000  Level FlightAware
Fri 05:53:05 AM 51.7899 -2.5951 100° East 543 625 37,000  Level FlightAware
Fri 05:53:36 AM 51.7766 -2.4757 100° East 544 626 37,000  Level FlightAware
Fri 05:54:07 AM 51.7627 -2.3479 100° East 544 626 37,000  Level FlightAware
Fri 05:54:40 AM 51.7481 -2.2160 100° East 545 627 37,000  Level FlightAware
Fri 05:55:10 AM 51.7346 -2.0964 100° East 546 628 37,000  Level FlightAware
Fri 05:55:42 AM 51.7205 -1.9725 100° East 546 628 37,000  Level FlightAware
Fri 05:56:12 AM 51.7067 -1.8529 100° East 546 628 37,000  Level FlightAware
Fri 05:56:44 AM 51.6920 -1.7249 100° East 546 628 37,000  Level FlightAware
Fri 05:57:15 AM 51.6775 -1.6012 101° East 547 629 37,000  Level FlightAware
Fri 05:57:45 AM 51.6633 -1.4813 101° East 548 631 37,000  Level FlightAware
Fri 05:58:15 AM 51.6490 -1.3617 101° East 548 631 37,000  Level FlightAware
Fri 05:58:46 AM 51.6342 -1.2379 101° East 549 632 37,000  Level FlightAware
Fri 05:59:16 AM 51.6194 -1.1138 101° East 549 632 37,000  Level FlightAware
Fri 05:59:47 AM 51.6044 -0.9898 101° East 549 632 37,000  Level FlightAware
Fri 06:00:18 AM 51.5890 -0.8661 101° East 550 633 37,000  Level FlightAware
Fri 06:00:48 AM 51.5738 -0.7463 101° East 550 633 37,000  Level FlightAware
Fri 06:01:19 AM 51.5587 -0.6264 101° East 550 633 37,000  Level FlightAware
Fri 06:01:51 AM 51.5420 -0.4945 101° East 550 633 37,000  Level FlightAware
Fri 06:02:22 AM 51.5264 -0.3709 101° East 549 632 37,000  Level FlightAware
Fri 06:02:53 AM 51.5105 -0.2512 102° East 550 633 37,000  Level FlightAware
Fri 06:03:23 AM 51.4950 -0.1282 101° East 550 633 37,000  Level FlightAware
Fri 06:03:54 AM 51.4790 -0.0086 102° East 550 633 37,000  Level FlightAware
Fri 06:04:24 AM 51.4632 0.1105 102° East 549 632 37,000  Level FlightAware
Fri 06:04:56 AM 51.4462 0.2377 102° East 549 632 37,000  Level FlightAware
Fri 06:05:26 AM 51.4298 0.3605 102° East 548 631 37,000  Level FlightAware
Fri 06:05:57 AM 51.4129 0.4833 102° East 549 632 37,000  Level FlightAware
Fri 06:06:29 AM 51.3957 0.6100 102° East 548 631 37,000  Level FlightAware
Fri 06:07:00 AM 51.3788 0.7324 102° East 548 631 37,000  Level FlightAware
Fri 06:07:33 AM 51.3609 0.8586 103° East 548 631 37,000  Level FlightAware
Fri 06:08:04 AM 51.3436 0.9848 102° East 548 631 37,000  Level FlightAware
Fri 06:08:35 AM 51.3264 1.1032 103° East 549 632 37,000  Level FlightAware
Fri 06:09:06 AM 51.3086 1.2290 103° East 548 631 37,000  Level FlightAware
Fri 06:09:37 AM 51.2911 1.3512 103° East 548 631 37,000 -98 Level FlightAware
Fri 06:10:07 AM 51.2743 1.4685 103° East 496 571 36,900  Descending FlightAware
Fri 06:10:47 AM 51.2439 1.6195 103° East 549 632 37,000 80 Climbing FlightAware
Fri 06:11:22 AM 51.2240 1.6890 115° Southeast 543 625 37,000  Level FlightAware
Fri 06:11:40 AM 51.1870 1.8161 115° Southeast 545 627 37,000 -95 Level FlightAware
Fri 06:12:25 AM 51.1407 1.9810 115° Southeast 496 571 36,900  Descending FlightAware
Fri 06:12:34 AM 51.1322 2.0097 115° Southeast 543 625 37,000 107 Climbing FlightAware
Fri 06:13:21 AM 51.0812 2.1820 115° Southeast 543 625 37,000  Level FlightAware
Fri 06:14:04 AM 51.0360 2.3290 116° Southeast 541 623 37,000  Level FlightAware
Fri 06:14:38 AM 50.9980 2.4530 116° Southeast 540 621 37,000  Level FlightAware
Fri 06:15:33 AM 50.9382 2.6493 116° Southeast 540 621 37,000 -48 Level FlightAware
Fri 06:16:43 AM 50.8611 2.9030 116° Southeast 496 571 36,900  Descending FlightAware
Fri 06:16:49 AM 50.8550 2.9230 116° Southeast 539 620 37,000 125 Climbing FlightAware
Fri 06:17:31 AM 50.8090 3.0680 117° Southeast 539 620 37,000  Level FlightAware
Fri 06:18:10 AM 50.7660 3.2050 117° Southeast 538 619 37,000 -143 Level FlightAware
Fri 06:18:13 AM 50.7621 3.2217 117° Southeast 494 568 36,900 -182 Descending FlightAware
Fri 06:18:43 AM 50.7287 3.3269 117° Southeast 494 568 36,900 146 Level FlightAware
Fri 06:18:54 AM 50.7180 3.3600 117° Southeast 538 619 37,000 122 Climbing FlightAware
Fri 06:19:32 AM 50.6790 3.4820 117° Southeast 537 618 37,000 -140 Level FlightAware
Fri 06:19:37 AM 50.6691 3.5164 117° Southeast 494 568 36,900  Descending FlightAware
Fri 06:20:18 AM 50.6240 3.6540 117° Southeast 538 619 37,000 77 Climbing FlightAware
Fri 06:20:55 AM 50.5830 3.7830 117° Southeast 538 619 37,000  Level FlightAware
Fri 06:21:35 AM 50.5400 3.9150 117° Southeast 539 620 37,000  Level FlightAware
Fri 06:22:18 AM 50.4910 4.0650 117° Southeast 538 619 37,000 -81 Level FlightAware
Fri 06:22:49 AM 50.4523 4.1838 117° Southeast 496 571 36,900  Descending FlightAware
Fri 06:22:58 AM 50.4440 4.2110 117° Southeast 538 619 37,000 118 Climbing FlightAware
Fri 06:23:40 AM 50.3980 4.3530 117° Southeast 537 618 37,000  Level FlightAware
Fri 06:24:24 AM 50.3450 4.5110 118° Southeast 538 619 37,000  Level FlightAware
Fri 06:25:06 AM 50.3010 4.6460 117° Southeast 538 619 37,000  Level FlightAware
Fri 06:25:50 AM 50.2490 4.8010 118° Southeast 537 618 37,000  Level FlightAware
Fri 06:26:28 AM 50.2060 4.9270 118° Southeast 537 618 37,000  Level FlightAware
Fri 06:27:13 AM 50.1520 5.0880 118° Southeast 536 617 37,000  Level FlightAware
Fri 06:27:52 AM 50.1080 5.2180 118° Southeast 536 617 37,000  Level FlightAware
Fri 06:28:38 AM 50.0540 5.3740 118° Southeast 535 616 37,000  Level FlightAware
Fri 06:29:16 AM 50.0090 5.5070 118° Southeast 534 615 37,000  Level FlightAware
Fri 06:29:53 AM 49.9710 5.6180 118° Southeast 534 615 37,000  Level FlightAware
Fri 06:30:32 AM 49.9200 5.7620 119° Southeast 531 611 37,000  Level FlightAware
Fri 06:31:16 AM 49.8690 5.9090 118° Southeast 529 609 37,000  Level FlightAware
Fri 06:32:00 AM 49.8170 6.0560 119° Southeast 528 608 37,000  Level FlightAware
Fri 06:32:42 AM 49.7690 6.1920 119° Southeast 528 608 37,000  Level FlightAware
Fri 06:33:26 AM 49.7260 6.3430 114° Southeast 527 606 37,000  Level FlightAware
Fri 06:34:04 AM 49.6960 6.4780 109° East 526 605 37,000  Level FlightAware
Fri 06:34:40 AM 49.6660 6.6090 109° East 527 606 37,000  Level FlightAware
Fri 06:35:22 AM 49.6330 6.7570 109° East 525 604 37,000  Level FlightAware
Fri 06:36:05 AM 49.5890 6.8990 116° Southeast 524 603 37,000  Level FlightAware
Fri 06:36:39 AM 49.5490 7.0100 119° Southeast 523 602 37,000  Level FlightAware
Fri 06:37:22 AM 49.4940 7.1500 121° Southeast 524 603 37,000  Level FlightAware
Fri 06:38:02 AM 49.4430 7.2760 122° Southeast 523 602 37,000  Level FlightAware
Fri 06:38:47 AM 49.3850 7.4180 122° Southeast 525 604 37,000  Level FlightAware
Fri 06:39:26 AM 49.3360 7.5390 122° Southeast 525 604 37,000  Level FlightAware
Fri 06:40:10 AM 49.2790 7.6770 122° Southeast 525 604 37,000  Level FlightAware
Fri 06:40:50 AM 49.2270 7.8070 121° Southeast 525 604 37,000  Level FlightAware
Fri 06:41:31 AM 49.1760 7.9320 122° Southeast 524 603 37,000  Level FlightAware
Fri 06:42:08 AM 49.1270 8.0510 122° Southeast 524 603 37,000  Level FlightAware
Fri 06:42:49 AM 49.0760 8.1760 122° Southeast 523 602 37,000  Level FlightAware
Fri 06:43:26 AM 49.0220 8.2720 131° Southeast 522 601 37,000  Level FlightAware
Fri 06:44:12 AM 48.9410 8.4020 133° Southeast 520 598 37,000  Level FlightAware
Fri 06:44:56 AM 48.8670 8.5230 133° Southeast 523 602 37,000  Level FlightAware
Fri 06:45:36 AM 48.8010 8.6290 133° Southeast 522 601 37,000  Level FlightAware
Fri 06:46:21 AM 48.7250 8.7460 135° Southeast 523 602 37,000  Level FlightAware
Fri 06:47:01 AM 48.6570 8.8500 135° Southeast 524 603 37,000  Level FlightAware
Fri 06:47:42 AM 48.5890 8.9540 135° Southeast 525 604 37,000  Level FlightAware
Fri 06:48:26 AM 48.5130 9.0710 134° Southeast 526 605 37,000  Level FlightAware
Fri 06:49:06 AM 48.4470 9.1660 136° Southeast 525 604 37,000  Level FlightAware
Fri 06:49:46 AM 48.3690 9.2550 143° Southeast 526 605 37,000  Level FlightAware
Fri 06:50:50 AM 48.2430 9.4030 142° Southeast 525 604 37,000  Level FlightAware
Fri 06:51:34 AM 48.1640 9.4940 142° Southeast 528 608 37,000  Level FlightAware
Fri 06:52:19 AM 48.0710 9.5980 143° Southeast 527 606 37,000  Level FlightAware
Fri 06:52:59 AM 47.9930 9.6850 143° Southeast 527 606 37,000  Level FlightAware
Fri 06:53:39 AM 47.9160 9.7720 143° Southeast 527 606 37,000  Level FlightAware
Fri 06:54:19 AM 47.8410 9.8550 143° Southeast 528 608 37,000  Level FlightAware
Fri 06:55:16 AM 47.7270 9.9800 144° Southeast 521 600 37,000  Level FlightAware
Fri 06:55:56 AM 47.6490 10.0670 143° Southeast 522 601 37,000  Level FlightAware
Fri 06:56:36 AM 47.5700 10.1530 144° Southeast 522 601 37,000  Level FlightAware
Fri 06:57:16 AM 47.4910 10.2390 144° Southeast 523 602 37,000  Level FlightAware
Fri 06:57:56 AM 47.4150 10.3220 144° Southeast 524 603 37,000 212 Level FlightAware
Fri 06:58:41 AM 47.3230 10.4200 144° Southeast 523 602 37,300 847 Climbing FlightAware
Fri 06:59:21 AM 47.2480 10.5030 143° Southeast 517 595 38,200 944 Climbing FlightAware
Fri 07:00:29 AM 47.1250 10.6340 144° Southeast 519 597 39,000 425 Climbing FlightAware
Fri 07:01:14 AM 47.0180 10.7140 153° Southeast 517 595 39,000  Level FlightAware
Fri 07:01:52 AM 46.9310 10.7710 156° South 518 596 39,000  Level FlightAware
Fri 07:02:37 AM 46.8330 10.8380 155° Southeast 519 597 39,000  Level FlightAware
Fri 07:03:17 AM 46.7570 10.9200 144° Southeast 514 592 39,000  Level FlightAware
Fri 07:03:57 AM 46.7030 11.0330 125° Southeast 514 592 39,000  Level FlightAware
Fri 07:04:37 AM 46.6440 11.1430 128° Southeast 516 594 39,000  Level FlightAware
Fri 07:05:22 AM 46.5750 11.2620 130° Southeast 517 595 39,000  Level FlightAware
Fri 07:06:07 AM 46.5040 11.3810 131° Southeast 518 596 39,000  Level FlightAware
Fri 07:06:37 AM 46.4580 11.4560 132° Southeast 518 596 39,000  Level FlightAware
Fri 07:07:22 AM 46.3850 11.5760 131° Southeast 520 598 39,000  Level FlightAware
Fri 07:08:02 AM 46.3220 11.6800 131° Southeast 519 597 39,000  Level FlightAware
Fri 07:08:37 AM 46.2660 11.7710 132° Southeast 519 597 39,000  Level FlightAware
Fri 07:09:22 AM 46.1940 11.8870 132° Southeast 519 597 39,000  Level FlightAware
Fri 07:10:02 AM 46.1300 11.9910 132° Southeast 519 597 39,000  Level FlightAware
Fri 07:10:42 AM 46.0670 12.0910 132° Southeast 519 597 39,000  Level FlightAware
Fri 07:10:57 AM 46.0440 12.1270 133° Southeast 519 597 39,000  Level FlightAware
Fri 07:11:41 AM 45.9720 12.2420 132° Southeast 511 588 39,000  Level FlightAware
Fri 07:12:26 AM 45.9010 12.3570 132° Southeast 508 585 39,000  Level FlightAware
Fri 07:13:06 AM 45.8370 12.4580 132° Southeast 507 583 39,000  Level FlightAware
Fri 07:13:51 AM 45.7640 12.5730 132° Southeast 506 582 39,000  Level FlightAware
Fri 07:14:31 AM 45.7010 12.6730 132° Southeast 506 582 39,000  Level FlightAware
Fri 07:15:06 AM 45.6450 12.7630 132° Southeast 505 581 39,000  Level FlightAware
Fri 07:15:51 AM 45.5810 12.8800 128° Southeast 505 581 39,000  Level FlightAware
Fri 07:16:31 AM 45.5240 12.9890 127° Southeast 510 587 39,000  Level FlightAware
Fri 07:17:06 AM 45.4750 13.0820 127° Southeast 511 588 39,000  Level FlightAware
Fri 07:17:51 AM 45.4130 13.2050 126° Southeast 506 582 39,000  Level FlightAware
Fri 07:18:31 AM 45.3570 13.3130 126° Southeast 504 580 39,000  Level FlightAware
Fri 07:19:11 AM 45.3000 13.4210 127° Southeast 509 586 39,000  Level FlightAware
Fri 07:19:51 AM 45.2440 13.5280 127° Southeast 509 586 39,000  Level FlightAware
Fri 07:20:36 AM 45.1840 13.6430 126° Southeast 511 588 39,000  Level FlightAware
Fri 07:21:16 AM 45.1260 13.7540 126° Southeast 513 590 39,000  Level FlightAware
Fri 07:21:56 AM 45.0690 13.8640 126° Southeast 514 592 39,000  Level FlightAware
Fri 07:22:36 AM 45.0120 13.9690 127° Southeast 516 594 39,000  Level FlightAware
Fri 07:23:16 AM 44.9550 14.0770 127° Southeast 517 595 39,000  Level FlightAware
Fri 07:23:51 AM 44.9050 14.1710 127° Southeast 513 590 39,000  Level FlightAware
Fri 07:24:31 AM 44.8460 14.2820 127° Southeast 514 592 39,000  Level FlightAware
Fri 07:25:11 AM 44.7890 14.3900 127° Southeast 513 590 39,000  Level FlightAware
Fri 07:25:56 AM 44.7320 14.4950 127° Southeast 518 596 39,000  Level FlightAware
Fri 07:26:37 AM 44.6750 14.5990 128° Southeast 518 596 39,000  Level FlightAware
Fri 07:27:22 AM 44.6060 14.7250 128° Southeast 518 596 39,000  Level FlightAware
Fri 07:28:30 AM 44.5010 14.9200 127° Southeast 512 589 39,000  Level FlightAware
Fri 07:29:11 AM 44.4520 15.0100 127° Southeast 517 595 39,000  Level FlightAware
Fri 07:30:20 AM 44.3410 15.2120 127° Southeast 513 590 39,000  Level FlightAware
Fri 07:31:05 AM 44.2750 15.3310 128° Southeast 512 589 39,000  Level FlightAware
Fri 07:31:45 AM 44.2210 15.4280 128° Southeast 512 589 39,000  Level FlightAware
Fri 07:32:30 AM 44.1500 15.5540 128° Southeast 511 588 39,000  Level FlightAware
Fri 07:33:10 AM 44.0960 15.6490 128° Southeast 511 588 39,000  Level FlightAware
Fri 07:33:55 AM 44.0250 15.7760 128° Southeast 512 589 39,000  Level FlightAware
Fri 07:34:35 AM 43.9670 15.8810 127° Southeast 519 597 39,000  Level FlightAware
Fri 07:35:15 AM 43.9050 15.9880 129° Southeast 517 595 39,000  Level FlightAware
Fri 07:35:55 AM 43.8470 16.0900 128° Southeast 516 594 39,000  Level FlightAware
Fri 07:36:35 AM 43.7890 16.1930 128° Southeast 515 593 39,000  Level FlightAware
Fri 07:37:21 AM 43.7220 16.3090 129° Southeast 514 592 39,000  Level FlightAware
Fri 07:37:55 AM 43.6720 16.3970 128° Southeast 515 593 39,000  Level FlightAware
Fri 07:38:35 AM 43.6110 16.5020 129° Southeast 516 594 39,000  Level FlightAware
Fri 07:39:15 AM 43.5510 16.6080 128° Southeast 517 595 39,000 -71 Level FlightAware
Fri 07:40:00 AM 43.4830 16.7230 129° Southeast 517 595 38,900  Descending FlightAware
Fri 07:40:40 AM 43.4240 16.8230 129° Southeast 516 594 39,000 71 Climbing FlightAware
Fri 07:41:25 AM 43.3580 16.9370 129° Southeast 512 589 39,000  Level FlightAware
Fri 07:42:05 AM 43.2980 17.0380 129° Southeast 509 586 39,000  Level FlightAware
Fri 07:42:40 AM 43.2470 17.1260 128° Southeast 509 586 39,000  Level FlightAware
Fri 07:43:15 AM 43.1950 17.2120 130° Southeast 510 587 39,000  Level FlightAware
Fri 07:44:05 AM 43.1190 17.3420 129° Southeast 511 588 39,000  Level FlightAware
Fri 07:44:56 AM 43.0460 17.4650 129° Southeast 511 588 39,000  Level FlightAware
Fri 07:45:35 AM 42.9850 17.5650 130° Southeast 511 588 39,000  Level FlightAware
Fri 07:46:15 AM 42.9270 17.6620 129° Southeast 511 588 39,000  Level FlightAware
Fri 07:47:00 AM 42.8570 17.7790 129° Southeast 510 587 39,000  Level FlightAware
Fri 07:47:40 AM 42.8010 17.8710 130° Southeast 510 587 39,000  Level FlightAware
Fri 07:48:20 AM 42.7390 17.9750 129° Southeast 510 587 39,000  Level FlightAware
Fri 07:49:06 AM 42.6690 18.0890 130° Southeast 513 590 39,000  Level FlightAware
Fri 07:49:42 AM 42.6110 18.1830 130° Southeast 515 593 39,000  Level FlightAware
Fri 07:50:24 AM 42.5460 18.2860 131° Southeast 516 594 39,000  Level FlightAware
Fri 07:51:04 AM 42.4800 18.3760 135° Southeast 517 595 39,000  Level FlightAware
Fri 07:51:42 AM 42.4140 18.4610 136° Southeast 517 595 39,000  Level FlightAware
Fri 07:52:22 AM 42.3440 18.5520 136° Southeast 518 596 39,000  Level FlightAware
Fri 07:53:06 AM 42.2690 18.6460 137° Southeast 518 596 39,000  Level FlightAware
Fri 07:53:46 AM 42.1980 18.7370 136° Southeast 517 595 39,000  Level FlightAware
Fri 07:54:28 AM 42.1240 18.8320 136° Southeast 518 596 39,000  Level FlightAware
Fri 07:55:10 AM 42.0510 18.9250 137° Southeast 517 595 39,000  Level FlightAware
Fri 07:55:50 AM 41.9810 19.0130 137° Southeast 517 595 39,000  Level FlightAware
Fri 07:56:26 AM 41.9180 19.0920 137° Southeast 517 595 39,000  Level FlightAware
Fri 07:57:10 AM 41.8410 19.1890 137° Southeast 518 596 39,000  Level FlightAware
Fri 07:57:52 AM 41.7700 19.2790 137° Southeast 518 596 39,000  Level FlightAware
Fri 07:58:28 AM 41.7050 19.3600 137° Southeast 518 596 39,000  Level FlightAware
Fri 07:59:08 AM 41.6340 19.4480 137° Southeast 519 597 39,000  Level FlightAware
Fri 07:59:48 AM 41.5660 19.5320 137° Southeast 519 597 39,000  Level FlightAware
Fri 08:00:28 AM 41.4980 19.6220 135° Southeast 517 595 39,000  Level FlightAware
Fri 08:01:14 AM 41.4190 19.7250 136° Southeast 518 596 39,000  Level FlightAware
Fri 08:01:54 AM 41.3520 19.8120 136° Southeast 518 596 39,000  Level FlightAware
Fri 08:02:38 AM 41.2740 19.9120 136° Southeast 519 597 39,000  Level FlightAware
Fri 08:03:36 AM 41.1730 20.0400 136° Southeast 521 600 39,000  Level FlightAware
Fri 08:04:14 AM 41.1060 20.1270 136° Southeast 524 603 39,000  Level FlightAware
Fri 08:04:55 AM 41.0410 20.2090 136° Southeast 525 604 39,000  Level FlightAware
Fri 08:05:41 AM 40.9550 20.3180 136° Southeast 529 609 39,000  Level FlightAware
Fri 08:06:23 AM 40.8810 20.4130 136° Southeast 532 612 39,000  Level FlightAware
Fri 08:07:04 AM 40.8100 20.5000 137° Southeast 534 615 39,000  Level FlightAware
Fri 08:07:45 AM 40.7340 20.5970 136° Southeast 536 617 39,000  Level FlightAware
Fri 08:08:29 AM 40.6530 20.6990 136° Southeast 537 618 39,000  Level FlightAware
Fri 08:09:11 AM 40.5780 20.7910 137° Southeast 538 619 39,000  Level FlightAware
Fri 08:09:49 AM 40.5120 20.8740 136° Southeast 538 619 39,000  Level FlightAware
Fri 08:10:27 AM 40.4400 20.9640 136° Southeast 539 620 39,000  Level FlightAware
Fri 08:11:01 AM 40.3800 21.0380 137° Southeast 539 620 39,000  Level FlightAware
Fri 08:11:51 AM 40.2870 21.1520 137° Southeast 539 620 39,000  Level FlightAware
Fri 08:12:31 AM 40.2170 21.2460 134° Southeast 543 625 39,000  Level FlightAware
Fri 08:13:03 AM 40.1630 21.3230 133° Southeast 544 626 39,000  Level FlightAware
Fri 08:13:51 AM 40.0830 21.4380 132° Southeast 545 627 39,000  Level FlightAware
Fri 08:14:31 AM 40.0150 21.5390 131° Southeast 545 627 39,000  Level FlightAware
Fri 08:15:15 AM 39.9430 21.6450 132° Southeast 546 628 39,000  Level FlightAware
Fri 08:15:57 AM 39.8720 21.7480 132° Southeast 545 627 39,000  Level FlightAware
Fri 08:16:37 AM 39.8060 21.8460 131° Southeast 543 625 39,000  Level FlightAware
Fri 08:17:21 AM 39.7310 21.9550 132° Southeast 541 623 39,000  Level FlightAware
Fri 08:18:01 AM 39.6640 22.0520 132° Southeast 541 623 39,000  Level FlightAware
Fri 08:18:45 AM 39.5920 22.1550 132° Southeast 538 619 39,000  Level FlightAware
Fri 08:19:25 AM 39.5250 22.2510 132° Southeast 537 618 39,000  Level FlightAware
Fri 08:20:09 AM 39.4510 22.3560 132° Southeast 534 615 39,000  Level FlightAware
Fri 08:20:50 AM 39.3840 22.4530 132° Southeast 533 613 39,000  Level FlightAware
Fri 08:21:32 AM 39.3190 22.5580 129° Southeast 535 616 39,000  Level FlightAware
Fri 08:22:10 AM 39.2620 22.6580 126° Southeast 535 616 39,000  Level FlightAware
Fri 08:22:58 AM 39.1910 22.7780 127° Southeast 534 615 39,000  Level FlightAware
Fri 08:23:51 AM 39.1160 22.9100 126° Southeast 531 611 39,000  Level FlightAware
Fri 08:24:31 AM 39.0560 23.0140 127° Southeast 530 610 39,000  Level FlightAware
Fri 08:25:03 AM 39.0100 23.0930 127° Southeast 529 609 39,000  Level FlightAware
Fri 08:25:46 AM 38.9490 23.2010 126° Southeast 523 602 39,000  Level FlightAware
Fri 08:26:46 AM 38.8680 23.3400 127° Southeast 523 602 39,000  Level FlightAware
Fri 08:27:25 AM 38.8020 23.4530 127° Southeast 528 608 39,000  Level FlightAware
Fri 08:28:09 AM 38.7380 23.5630 127° Southeast 530 610 39,000  Level FlightAware
Fri 08:28:53 AM 38.6720 23.6760 127° Southeast 533 613 39,000  Level FlightAware
Fri 08:29:33 AM 38.6140 23.7750 127° Southeast 536 617 39,000  Level FlightAware
Fri 08:30:24 AM 38.5450 23.8950 126° Southeast 538 619 39,000  Level FlightAware
Fri 08:31:11 AM 38.4660 24.0250 128° Southeast 547 629 39,000  Level FlightAware
Fri 08:31:49 AM 38.4080 24.1230 127° Southeast 548 631 39,000  Level FlightAware
Fri 08:32:28 AM 38.3490 24.2230 127° Southeast 550 633 39,000  Level FlightAware
Fri 08:33:10 AM 38.2840 24.3320 127° Southeast 552 635 39,000  Level FlightAware
Fri 08:33:49 AM 38.2230 24.4320 128° Southeast 553 636 39,000  Level FlightAware
Fri 08:34:43 AM 38.1390 24.5720 127° Southeast 554 638 39,000  Level FlightAware
Fri 08:35:27 AM 38.0700 24.6880 127° Southeast 552 635 39,000  Level FlightAware
Fri 08:36:09 AM 38.0060 24.7930 128° Southeast 551 634 39,000  Level FlightAware
Fri 08:36:53 AM 37.9370 24.9060 128° Southeast 549 632 39,000  Level FlightAware
Fri 08:37:33 AM 37.8760 25.0070 127° Southeast 547 629 39,000  Level FlightAware
Fri 08:38:13 AM 37.8130 25.1080 128° Southeast 546 628 39,000  Level FlightAware
Fri 08:38:59 AM 37.7420 25.2240 128° Southeast 543 625 39,000  Level FlightAware
Fri 08:39:38 AM 37.6820 25.3210 128° Southeast 540 621 39,000  Level FlightAware
Fri 08:40:23 AM 37.6150 25.4310 128° Southeast 538 619 39,000  Level FlightAware
Fri 08:41:03 AM 37.5510 25.5340 128° Southeast 537 618 39,000  Level FlightAware
Fri 08:41:47 AM 37.4840 25.6400 129° Southeast 535 616 39,000  Level FlightAware
Fri 08:42:29 AM 37.4190 25.7450 128° Southeast 535 616 39,000  Level FlightAware
Fri 08:43:09 AM 37.3580 25.8430 128° Southeast 534 615 39,000  Level FlightAware
Fri 08:43:54 AM 37.2950 25.9430 128° Southeast 534 615 39,000  Level FlightAware
Fri 08:44:29 AM 37.2360 26.0380 128° Southeast 534 615 39,000  Level FlightAware
Fri 08:45:07 AM 37.1780 26.1300 128° Southeast 533 613 39,000  Level FlightAware
Fri 08:45:48 AM 37.1160 26.2270 129° Southeast 535 616 39,000  Level FlightAware
Fri 08:46:26 AM 37.0560 26.3220 128° Southeast 534 615 39,000  Level FlightAware
Fri 08:47:08 AM 36.9920 26.4210 129° Southeast 533 613 39,000  Level FlightAware
Fri 08:47:48 AM 36.9310 26.5170 128° Southeast 534 615 39,000  Level FlightAware
Fri 08:48:32 AM 36.8620 26.6260 128° Southeast 535 616 39,000  Level FlightAware
Fri 08:49:16 AM 36.7940 26.7320 129° Southeast 535 616 39,000  Level FlightAware
Fri 08:49:56 AM 36.7360 26.8210 129° Southeast 535 616 39,000  Level FlightAware
Fri 08:50:36 AM 36.6700 26.9240 129° Southeast 535 616 39,000  Level FlightAware
Fri 08:51:18 AM 36.6050 27.0220 130° Southeast 534 615 39,000  Level FlightAware
Fri 08:51:52 AM 36.5520 27.1060 128° Southeast 533 613 39,000  Level FlightAware
Fri 08:52:36 AM 36.4850 27.2080 129° Southeast 532 612 39,000  Level FlightAware
Fri 08:53:18 AM 36.4190 27.3080 129° Southeast 533 613 39,000  Level FlightAware
Fri 08:53:48 AM 36.3710 27.3810 129° Southeast 534 615 39,000  Level FlightAware
Fri 08:54:43 AM 36.2930 27.5000 129° Southeast 534 615 39,000  Level FlightAware
Fri 08:55:46 AM 36.1930 27.6520 129° Southeast 534 615 39,000  Level FlightAware
Fri 08:56:28 AM 36.1240 27.7550 130° Southeast 530 610 39,000  Level FlightAware
Fri 08:57:18 AM 36.0510 27.8660 129° Southeast 529 609 39,000  Level FlightAware
Fri 08:58:05 AM 35.9720 27.9820 130° Southeast 528 608 39,000  Level FlightAware
Fri 08:58:41 AM 35.9150 28.0700 129° Southeast 527 606 39,000  Level FlightAware
Fri 08:59:20 AM 35.8540 28.1580 131° Southeast 526 605 39,000  Level FlightAware
Fri 09:00:04 AM 35.7860 28.2590 130° Southeast 525 604 39,000  Level FlightAware
Fri 09:00:38 AM 35.7330 28.3400 129° Southeast 526 605 39,000  Level FlightAware
Fri 09:01:22 AM 35.6650 28.4390 130° Southeast 526 605 39,000  Level FlightAware
Fri 09:02:02 AM 35.6030 28.5310 130° Southeast 525 604 39,000  Level FlightAware
Fri 09:02:44 AM 35.5360 28.6290 130° Southeast 524 603 39,000  Level FlightAware
Fri 09:03:24 AM 35.4740 28.7200 130° Southeast 523 602 39,000  Level FlightAware
Fri 09:04:10 AM 35.4030 28.8250 130° Southeast 522 601 39,000  Level FlightAware
Fri 09:04:50 AM 35.3410 28.9130 131° Southeast 521 600 39,000  Level FlightAware
Fri 09:05:26 AM 35.2860 28.9940 130° Southeast 522 601 39,000  Level FlightAware
Fri 09:06:22 AM 35.2000 29.1200 130° Southeast 520 598 39,000  Level FlightAware
Fri 09:07:04 AM 35.1330 29.2140 131° Southeast 519 597 39,000  Level FlightAware
Fri 09:08:11 AM 35.0440 29.3430 130° Southeast 518 596 39,000  Level FlightAware
Fri 09:08:49 AM 34.9710 29.4490 130° Southeast 518 596 39,000  Level FlightAware
Fri 09:09:24 AM 34.9170 29.5260 131° Southeast 519 597 39,000  Level FlightAware
Fri 09:10:15 AM 34.8390 29.6360 131° Southeast 520 598 39,000  Level FlightAware
Fri 09:10:55 AM 34.7790 29.7290 128° Southeast 522 601 39,000  Level FlightAware
Fri 09:11:39 AM 34.7300 29.8320 120° Southeast 528 608 39,000  Level FlightAware
Fri 09:12:21 AM 34.6770 29.9460 119° Southeast 523 602 39,000  Level FlightAware
Fri 09:13:19 AM 34.6110 30.0790 121° Southeast 526 605 39,000  Level FlightAware
Fri 09:13:55 AM 34.5560 30.1910 121° Southeast 520 598 39,000  Level FlightAware
Fri 09:14:42 AM 34.4980 30.3070 121° Southeast 519 597 39,000  Level FlightAware
Fri 09:15:21 AM 34.4490 30.4040 121° Southeast 518 596 39,000  Level FlightAware
Fri 09:16:01 AM 34.3970 30.5060 122° Southeast 516 594 39,000  Level FlightAware
Fri 09:16:46 AM 34.3420 30.6180 121° Southeast 515 593 39,000  Level FlightAware
Fri 09:17:27 AM 34.2930 30.7150 121° Southeast 514 592 39,000  Level FlightAware
Fri 09:18:06 AM 34.2420 30.8170 121° Southeast 514 592 39,000  Level FlightAware
Fri 09:18:52 AM 34.1870 30.9280 121° Southeast 513 590 39,000  Level FlightAware
Fri 09:19:38 AM 34.1280 31.0440 122° Southeast 514 592 39,000  Level FlightAware
Fri 09:20:22 AM 34.0740 31.1500 122° Southeast 513 590 39,000  Level FlightAware
Fri 09:21:03 AM 34.0220 31.2530 121° Southeast 513 590 39,000  Level FlightAware
Fri 09:21:38 AM 33.9790 31.3390 121° Southeast 513 590 39,000  Level FlightAware
Fri 09:22:19 AM 33.9280 31.4380 122° Southeast 513 590 39,000  Level FlightAware
Fri 09:22:59 AM 33.8770 31.5380 122° Southeast 512 589 39,000  Level FlightAware
Fri 09:23:44 AM 33.8200 31.6480 122° Southeast 512 589 39,000  Level FlightAware
Fri 09:24:30 AM 33.7640 31.7580 121° Southeast 515 593 39,000  Level FlightAware
Fri 09:25:10 AM 33.7140 31.8550 122° Southeast 515 593 39,000  Level FlightAware
Fri 09:25:51 AM 33.6610 31.9570 122° Southeast 515 593 39,000  Level FlightAware
Fri 09:26:31 AM 33.6120 32.0520 122° Southeast 515 593 39,000  Level FlightAware
Fri 09:27:06 AM 33.5690 32.1340 122° Southeast 514 592 39,000  Level FlightAware
Fri 09:27:51 AM 33.5100 32.2480 122° Southeast 513 590 39,000  Level FlightAware
Fri 09:28:26 AM 33.4660 32.3320 122° Southeast 513 590 39,000  Level FlightAware
Fri 09:29:06 AM 33.4150 32.4310 122° Southeast 513 590 39,000  Level FlightAware
Fri 09:29:51 AM 33.3590 32.5360 123° Southeast 512 589 39,000 -296 Level FlightAware
Fri 09:30:27 AM 33.3140 32.6200 123° Southeast 514 592 38,600 -1,800 Descending FlightAware
Fri 09:31:11 AM 33.2590 32.7250 122° Southeast 511 588 36,600 -2,965 Descending FlightAware
Fri 09:31:52 AM 33.2110 32.8140 123° Southeast 518 596 34,400 -3,767 Descending FlightAware
Fri 09:32:37 AM 33.1480 32.9340 122° Southeast 530 610 31,200 -3,341 Descending FlightAware
Fri 09:33:20 AM 33.1000 33.0250 122° Southeast 535 616 29,500 -2,541 Descending FlightAware
Fri 09:34:02 AM 33.0360 33.1450 122° Southeast 518 596 27,600 -1,768 Descending FlightAware
Fri 09:34:55 AM 32.9780 33.2540 122° Southeast 510 587 26,700 -2,133 Descending FlightAware
Fri 09:35:32 AM 32.9280 33.3460 123° Southeast 474 545 24,400 -2,727 Descending FlightAware
Fri 09:36:23 AM 32.8690 33.4540 123° Southeast 439 505 22,700 -1,357 Descending FlightAware
Fri 09:36:56 AM 32.8380 33.5150 121° Southeast 436 502 22,500 -1,184 Descending FlightAware
Fri 09:37:39 AM 32.7920 33.5990 123° Southeast 415 478 21,200 -1,013 Descending FlightAware
Fri 09:38:13 AM 32.7630 33.6550 122° Southeast 415 478 21,200  Level FlightAware
Fri 09:38:50 AM 32.7310 33.7160 122° Southeast 415 478 21,200  Level FlightAware
Fri 09:39:39 AM 32.6880 33.7970 122° Southeast 415 478 21,200  Level FlightAware
Fri 09:40:24 AM 32.6490 33.8710 122° Southeast 415 478 21,200  Level FlightAware
Fri 09:41:02 AM 32.6160 33.9330 122° Southeast 415 478 21,200 -1,860 Level FlightAware
Fri 09:43:00 AM 32.4414 34.1970 135° Southeast  Level FlightAware
Fri 09:44:00 AM 32.3420 34.3219 132° Southeast  Level FlightAware
Fri 09:45:00 AM 32.2457 34.4502 132° Southeast  Level FlightAware
Fri 09:46:00 AM 32.1583 34.5868 126° Southeast  Level FlightAware
Fri 09:47:00 AM 32.0736 34.7243 115° Southeast  Level FlightAware
Fri 09:47:46 AM 32.2510 34.4350 115° Southeast 282 325 7,500  Level FlightAware
Fri 09:47:58 AM 32.2400 34.4480 135° Southeast 282 325 7,300 -1,000 Descending FlightAware
Fri 09:48:28 AM 32.2180 34.4840 126° Southeast 269 310 6,800 -1,000 Descending FlightAware
Fri 09:48:52 AM 32.2020 34.5150 121° Southeast 264 304 6,400 -471 Descending FlightAware
Fri 09:49:19 AM 32.1870 34.5430 122° Southeast 264 304 6,400 -1,017 Level FlightAware
Fri 09:49:51 AM 32.1620 34.5910 122° Southeast 269 310 5,400 -1,258 Descending FlightAware
Fri 09:50:21 AM 32.1440 34.6260 121° Southeast 268 308 5,100 -222 Descending FlightAware
Fri 09:50:45 AM 32.1270 34.6550 125° Southeast 265 305 5,200 111 Climbing FlightAware
Fri 09:51:15 AM 32.1060 34.6940 122° Southeast 265 305 5,200 -100 Level FlightAware
Fri 09:51:45 AM 32.0860 34.7300 123° Southeast 259 298 5,100  Descending FlightAware
Fri 09:52:13 AM 32.0680 34.7630 123° Southeast 222 255 5,200  Climbing FlightAware
Fri 09:52:42 AM 32.0500 34.7870 132° Southeast 204 235 5,100 -566 Descending FlightAware
Fri 09:53:06 AM 32.0340 34.8050 136° Southeast 194 223 4,700 -833 Descending FlightAware
Fri 09:53:18 AM 32.0270 34.8120 140° Southeast 199 229 4,600  Descending FlightAware
Fri 09:53:48 AM 32.0070 34.8360 134° Southeast 199 229 4,700 -600 Climbing FlightAware
Fri 09:54:18 AM 31.9860 34.8590 137° Southeast 211 243 4,000 -1,463 Descending FlightAware
Fri 09:55:10 AM 31.9770 34.9140 101° East 190 219 2,700 -1,235 Descending FlightAware
Fri 09:55:26 AM 31.9800 34.9260 74° East 179 206 2,600 -261 Descending FlightAware
Fri 09:56:19 AM 31.9880 34.9480 67° East 180 207 2,400 -226 Descending FlightAware
Fri 09:58:00 AM 32.0095 34.8769 290° West  Level Estimated
Fri 09:59:00 AM 32.0095 34.8769 270° West  Level Estimated

Login

Don't have an account? Register now (free) for customized features, flight alerts, and more!